< Typhoon 196431 1964 Season Typhoon 196433 >
Typhoon 196432 (MARGE)
General InformationTrack Information on Google Maps || Disaster Info.ResourceGoogle EarthGE AnimationAtom FeedGeoJSON
Detalied Best Track (Time Zone = UTC)
Year Month Day Hour Lat. Long. Pressure (hPa) Wind (kt) Class Image Chart
1964 11 20 06 12.9 124.8 1000 0 2 -- Chart
1964 11 20 12 13.9 125.0 1002 0 2 -- Chart
1964 11 20 18 15.0 124.0 1002 0 2 -- Chart
1964 11 21 00 15.4 122.8 1004 0 2 -- Chart
1964 11 21 06 15.5 121.2 1002 0 2 -- Chart
1964 11 21 12 15.3 119.5 1002 0 2 -- Chart
1964 11 21 18 15.0 119.1 1000 0 2 -- Chart
1964 11 22 00 14.6 118.9 998 0 9 -- Chart
1964 11 22 06 14.3 118.3 995 0 9 -- Chart
1964 11 22 12 14.1 118.6 995 0 9 -- Chart
1964 11 22 18 13.9 118.7 998 0 9 -- Chart
1964 11 23 00 13.7 118.8 1000 0 9 -- Chart
1964 11 23 06 13.5 118.9 1002 0 9 -- Chart
1964 11 23 12 13.4 118.9 1002 0 9 -- Chart
1964 11 23 18 13.1 118.9 1002 0 9 -- Chart
1964 11 24 00 13.0 119.0 1004 0 2 -- Chart
1964 11 24 06 12.8 119.0 1004 0 2 -- Chart
1964 11 24 12 12.5 119.0 1004 0 2 -- Chart
1964 11 24 18 12.3 119.0 1004 0 2 -- Chart
1964 11 25 00 12.0 119.0 1004 0 2 -- Chart
1964 11 25 06 12.0 119.0 1004 0 2 -- Chart
1964 11 25 12 12.0 119.0 1004 0 2 -- Chart
1964 11 25 18 12.0 119.0 1004 0 2 -- Chart
1964 11 26 00 12.0 119.0 1004 0 2 -- Chart
Japan Meteorological Agency Best Track Data | Correction Date : 1989-06-01
< Typhoon 196431 1964 Season Typhoon 196433 >

Help